createdAt,value
2018-12-25T00:01:40.190Z,83.73
2018-12-25T00:04:09.962Z,84.46
2018-12-25T00:06:39.759Z,83.70
2018-12-25T00:09:09.536Z,83.81
2018-12-25T00:11:39.313Z,84.01
2018-12-25T00:14:09.088Z,84.79
2018-12-25T00:19:32.447Z,85.64
2018-12-25T00:22:01.422Z,84.25
2018-12-25T00:24:31.490Z,84.49
2018-12-25T00:27:00.474Z,84.08
2018-12-25T00:29:30.251Z,84.70
2018-12-25T00:32:00.013Z,86.21
2018-12-25T00:34:29.796Z,85.58
2018-12-25T00:36:59.569Z,86.24
2018-12-25T00:39:29.339Z,87.16
2018-12-25T00:41:59.110Z,87.17
2018-12-25T00:44:28.887Z,85.38
2018-12-25T00:46:58.672Z,88.52
2018-12-25T00:49:28.460Z,86.15
2018-12-25T00:51:58.240Z,86.18
2018-12-25T00:54:28.005Z,83.70
2018-12-25T00:56:57.779Z,83.88
2018-12-25T00:59:26.671Z,83.52
2018-12-25T01:01:55.542Z,82.98
2018-12-25T01:04:25.339Z,82.67
2018-12-25T01:06:55.103Z,84.05
2018-12-25T01:09:24.876Z,83.94
2018-12-25T01:11:54.648Z,83.76
2018-12-25T01:14:24.431Z,83.88
2018-12-25T01:16:54.192Z,82.76
2018-12-25T01:19:23.967Z,82.75
2018-12-25T01:21:53.758Z,82.56
2018-12-25T01:24:23.527Z,84.66
2018-12-25T01:26:53.310Z,83.44
2018-12-25T01:29:23.082Z,82.28
2018-12-25T01:31:52.859Z,82.45
2018-12-25T01:35:20.744Z,83.21
2018-12-25T01:37:50.066Z,84.27
2018-12-25T01:40:18.695Z,83.84
2018-12-25T01:42:48.006Z,83.94
2018-12-25T01:45:16.425Z,83.64
2018-12-25T01:47:45.983Z,83.08
2018-12-25T01:50:15.312Z,83.59
2018-12-25T01:52:44.642Z,83.55
2018-12-25T01:55:13.975Z,83.34
2018-12-25T01:57:43.324Z,83.89
2018-12-25T02:00:12.755Z,84.25
2018-12-25T02:02:42.079Z,83.97
2018-12-25T02:05:11.400Z,83.16
2018-12-25T02:07:39.916Z,82.58
2018-12-25T02:10:09.229Z,82.49
2018-12-25T02:12:38.547Z,83.22
2018-12-25T02:15:07.872Z,82.43
2018-12-25T02:17:37.190Z,83.59
2018-12-25T02:20:06.515Z,82.28
2018-12-25T02:22:35.822Z,82.33
2018-12-25T02:25:04.370Z,82.12
2018-12-25T02:27:33.685Z,82.39
2018-12-25T02:30:02.252Z,83.29
2018-12-25T02:32:30.863Z,81.50
2018-12-25T02:35:00.194Z,81.98
2018-12-25T02:37:29.494Z,81.34
2018-12-25T02:39:59.043Z,81.13
2018-12-25T02:42:28.373Z,81.32
2018-12-25T02:44:57.694Z,82.01
2018-12-25T02:47:27.050Z,80.67
2018-12-25T02:49:55.460Z,80.86
2018-12-25T02:52:24.782Z,80.33
2018-12-25T02:54:54.106Z,80.99
2018-12-25T02:57:23.448Z,81.78
2018-12-25T02:59:51.976Z,80.14
2018-12-25T03:02:21.310Z,79.91
2018-12-25T03:04:50.657Z,80.46
2018-12-25T03:07:19.974Z,80.04
2018-12-25T03:09:49.299Z,80.85
2018-12-25T03:12:18.629Z,80.46
2018-12-25T03:14:47.964Z,79.50
2018-12-25T03:17:17.299Z,79.49
2018-12-25T03:19:45.809Z,79.73
2018-12-25T03:22:14.328Z,79.78
2018-12-25T03:24:42.841Z,81.36
2018-12-25T03:27:12.153Z,78.51
2018-12-25T03:29:41.479Z,80.60
2018-12-25T03:32:10.788Z,80.62
2018-12-25T03:34:40.119Z,79.18
2018-12-25T03:37:09.440Z,79.70
2018-12-25T03:39:38.756Z,79.38
2018-12-25T03:42:08.070Z,80.52
2018-12-25T03:44:37.395Z,81.10
2018-12-25T03:47:06.711Z,83.76
2018-12-25T03:49:35.227Z,84.99
2018-12-25T03:52:04.536Z,83.27
2018-12-25T03:54:33.868Z,84.03
2018-12-25T03:57:03.237Z,84.12
2018-12-25T03:59:32.520Z,85.21
2018-12-25T04:02:01.036Z,87.44
2018-12-25T04:04:30.369Z,87.75
2018-12-25T04:06:59.680Z,86.96
2018-12-25T04:09:28.102Z,88.40
2018-12-25T04:11:57.402Z,86.55
2018-12-25T04:14:26.018Z,87.20
2018-12-25T04:16:55.337Z,86.54
2018-12-25T04:19:24.659Z,88.43
2018-12-25T04:21:53.977Z,88.88
2018-12-25T04:24:23.402Z,88.44
2018-12-25T04:26:52.719Z,87.99
2018-12-25T04:29:21.263Z,88.02
2018-12-25T04:31:50.565Z,90.04
2018-12-25T04:34:19.096Z,88.70
2018-12-25T04:36:47.602Z,88.33
2018-12-25T04:39:16.928Z,89.89
2018-12-25T04:41:46.286Z,89.19
2018-12-25T04:44:15.559Z,88.88
2018-12-25T04:46:44.874Z,89.22
2018-12-25T04:49:14.185Z,90.07
2018-12-25T04:51:43.545Z,91.78
2018-12-25T04:54:11.952Z,90.28
2018-12-25T04:56:40.468Z,89.52
2018-12-25T05:02:03.232Z,88.78
2018-12-25T05:04:31.750Z,87.66
2018-12-25T05:07:00.179Z,86.84
2018-12-25T05:09:29.492Z,88.02
2018-12-25T05:11:58.809Z,88.01
2018-12-25T05:14:28.149Z,82.33
2018-12-25T05:16:57.467Z,82.22
2018-12-25T05:19:26.782Z,82.70
2018-12-25T05:21:55.185Z,82.19
2018-12-25T05:24:23.707Z,80.57
2018-12-25T05:26:52.223Z,80.72
2018-12-25T05:29:21.548Z,82.82
2018-12-25T05:31:50.865Z,79.48
2018-12-25T05:34:20.188Z,78.16
2018-12-25T05:36:49.488Z,77.09
2018-12-25T05:39:18.811Z,75.42
2018-12-25T05:41:47.330Z,75.40
2018-12-25T05:44:17.102Z,76.87
2018-12-25T05:46:46.416Z,74.00
2018-12-25T05:49:15.738Z,72.36
2018-12-25T05:51:44.145Z,68.97
2018-12-25T05:54:13.465Z,68.54
2018-12-25T05:56:42.774Z,70.53
2018-12-25T05:59:12.114Z,71.60
2018-12-25T06:01:41.427Z,70.81
2018-12-25T06:04:10.746Z,70.05
2018-12-25T06:06:39.167Z,72.01
2018-12-25T06:09:08.497Z,71.98
2018-12-25T06:11:37.019Z,70.53
2018-12-25T06:14:05.426Z,70.90
2018-12-25T06:16:34.753Z,70.79
2018-12-25T06:19:04.067Z,68.85
2018-12-25T06:21:33.389Z,75.20
2018-12-25T06:24:02.715Z,69.62
2018-12-25T06:26:32.042Z,68.08
2018-12-25T06:29:01.350Z,71.47
2018-12-25T06:31:30.662Z,70.86
2018-12-25T06:33:59.084Z,69.48
2018-12-25T06:36:27.612Z,73.88
2018-12-25T06:38:56.041Z,69.22
2018-12-25T06:41:25.382Z,70.85
2018-12-25T06:43:54.695Z,68.98
2018-12-25T06:46:24.017Z,70.91
2018-12-25T06:48:53.451Z,66.33
2018-12-25T06:51:22.771Z,67.25
2018-12-25T06:53:52.108Z,67.36
2018-12-25T06:56:21.457Z,66.45
2018-12-25T06:58:50.796Z,70.94
2018-12-25T07:01:20.119Z,67.33
2018-12-25T07:03:48.741Z,69.58
2018-12-25T07:06:18.048Z,65.32
2018-12-25T07:08:47.366Z,66.94
2018-12-25T07:11:16.672Z,64.65
2018-12-25T07:13:45.998Z,66.12
2018-12-25T07:16:15.336Z,65.70
2018-12-25T07:18:44.641Z,65.18
2018-12-25T07:21:13.979Z,67.54
2018-12-25T07:23:42.383Z,67.80
2018-12-25T07:26:10.911Z,65.72
2018-12-25T07:28:40.341Z,66.16
2018-12-25T07:31:08.869Z,66.43
2018-12-25T07:33:38.190Z,67.91
2018-12-25T07:36:09.443Z,64.96
2018-12-25T07:38:56.743Z,64.67
2018-12-25T07:41:26.064Z,64.72
2018-12-25T07:43:55.387Z,70.54
2018-12-25T07:46:23.903Z,64.49
2018-12-25T07:48:52.332Z,63.63
2018-12-25T07:51:21.650Z,63.63
2018-12-25T07:53:50.969Z,64.54
2018-12-25T07:56:20.316Z,65.57
2018-12-25T07:58:49.648Z,63.60
2018-12-25T08:01:19.033Z,62.82
2018-12-25T08:03:48.451Z,64.88
2018-12-25T08:06:17.822Z,66.11
2018-12-25T08:08:47.169Z,63.04
2018-12-25T08:11:15.643Z,63.80
2018-12-25T08:13:45.041Z,64.82
2018-12-25T08:16:13.467Z,65.36
2018-12-25T08:18:42.812Z,63.74
2018-12-25T08:21:12.157Z,61.66
2018-12-25T08:23:41.482Z,63.42
2018-12-25T08:26:10.788Z,65.01
2018-12-25T08:28:40.131Z,64.62
2018-12-25T08:31:09.459Z,71.89
2018-12-25T08:33:38.794Z,66.53
2018-12-25T08:36:08.231Z,62.92
2018-12-25T08:38:36.731Z,65.79
2018-12-25T08:41:05.254Z,66.82
2018-12-25T08:43:34.567Z,62.75
2018-12-25T08:46:03.878Z,63.42
2018-12-25T08:48:33.224Z,60.82
2018-12-25T08:51:02.546Z,61.53
2018-12-25T08:53:31.879Z,60.03
2018-12-25T08:56:01.199Z,58.66
2018-12-25T08:58:30.523Z,60.08
2018-12-25T09:00:59.848Z,59.33
2018-12-25T09:03:28.263Z,59.50
2018-12-25T09:05:57.605Z,59.72
2018-12-25T09:08:34.537Z,58.82
2018-12-25T09:11:16.145Z,60.35
2018-12-25T09:13:45.468Z,62.63
2018-12-25T09:16:14.863Z,66.75
2018-12-25T09:18:44.185Z,59.91
2018-12-25T09:21:13.495Z,60.51
2018-12-25T09:23:41.903Z,59.54
2018-12-25T09:26:11.252Z,62.52
2018-12-25T09:28:39.695Z,60.31
2018-12-25T09:31:09.020Z,62.32
2018-12-25T09:33:38.687Z,59.87
2018-12-25T09:36:08.002Z,58.52
2018-12-25T09:38:37.330Z,60.56
2018-12-25T09:41:06.667Z,57.08
2018-12-25T09:43:36.046Z,58.11
2018-12-25T09:46:06.259Z,61.61
2018-12-25T09:48:54.607Z,57.57
2018-12-25T09:51:23.931Z,59.45
2018-12-25T09:53:52.484Z,58.79
2018-12-25T09:56:20.903Z,61.26
2018-12-25T09:58:50.229Z,62.58
2018-12-25T10:01:19.556Z,57.01
2018-12-25T10:03:48.969Z,57.72
2018-12-25T10:06:18.276Z,57.81
2018-12-25T10:08:47.614Z,59.09
2018-12-25T10:11:16.926Z,65.92
2018-12-25T10:13:45.450Z,56.69
2018-12-25T10:16:14.757Z,55.54
2018-12-25T10:18:43.188Z,56.01
2018-12-25T10:21:11.709Z,54.76
2018-12-25T10:23:41.044Z,55.87
2018-12-25T10:26:10.376Z,55.28
2018-12-25T10:28:39.732Z,58.51
2018-12-25T10:31:09.159Z,55.61
2018-12-25T10:33:38.513Z,57.47
2018-12-25T10:36:07.844Z,60.50
2018-12-25T10:38:37.177Z,55.74
2018-12-25T10:41:05.597Z,57.79
2018-12-25T10:43:35.044Z,57.87
2018-12-25T10:46:04.369Z,53.70
2018-12-25T10:48:33.712Z,57.49
2018-12-25T10:51:03.032Z,66.45
2018-12-25T10:53:32.380Z,53.31
2018-12-25T10:56:01.705Z,55.50
2018-12-25T10:58:31.035Z,54.61
2018-12-25T11:01:09.228Z,56.47
2018-12-25T11:03:38.568Z,55.27
2018-12-25T11:06:06.988Z,53.45
2018-12-25T11:08:35.451Z,56.18
2018-12-25T11:11:04.731Z,55.07
2018-12-25T11:13:34.046Z,57.10
2018-12-25T11:16:03.369Z,51.97
2018-12-25T11:18:32.684Z,53.36
2018-12-25T11:21:02.011Z,60.54
2018-12-25T11:23:31.341Z,60.79
2018-12-25T11:26:00.673Z,53.98
2018-12-25T11:28:29.195Z,52.31
2018-12-25T11:30:57.787Z,51.26
2018-12-25T11:33:27.136Z,58.43
2018-12-25T11:35:56.496Z,51.44
2018-12-25T11:38:25.805Z,55.08
2018-12-25T11:40:55.144Z,52.55
2018-12-25T11:43:24.457Z,51.81
2018-12-25T11:45:53.771Z,53.96
2018-12-25T11:48:23.110Z,52.88
2018-12-25T11:50:52.444Z,56.40
2018-12-25T11:53:20.969Z,54.06
2018-12-25T11:55:50.291Z,55.52
2018-12-25T11:58:19.626Z,59.29
2018-12-25T12:00:48.957Z,52.88
2018-12-25T12:03:18.324Z,52.57
2018-12-25T12:05:47.670Z,57.79
2018-12-25T12:08:17.010Z,51.93
2018-12-25T12:10:45.521Z,52.93
2018-12-25T12:13:14.839Z,54.34
2018-12-25T12:15:44.168Z,53.16
2018-12-25T12:18:12.681Z,52.99
2018-12-25T12:20:41.194Z,52.65
2018-12-25T12:23:09.717Z,61.73
2018-12-25T12:25:38.439Z,53.46
2018-12-25T12:28:07.767Z,53.13
2018-12-25T12:30:37.137Z,55.04
2018-12-25T12:33:06.457Z,54.35
2018-12-25T12:35:35.791Z,52.97
2018-12-25T12:38:05.200Z,52.61
2018-12-25T12:40:33.751Z,59.64
2018-12-25T12:43:03.179Z,56.81
2018-12-25T12:45:32.502Z,52.04
2018-12-25T12:48:01.817Z,52.27
2018-12-25T12:50:31.171Z,55.19
2018-12-25T12:53:00.485Z,52.04
2018-12-25T12:55:29.795Z,58.93
2018-12-25T12:57:59.142Z,53.57
2018-12-25T13:00:28.569Z,56.35
2018-12-25T13:02:58.093Z,53.52
2018-12-25T13:05:27.393Z,52.79
2018-12-25T13:07:55.805Z,56.96
2018-12-25T13:10:24.399Z,55.72
2018-12-25T13:12:53.795Z,53.63
2018-12-25T13:15:23.110Z,53.60
2018-12-25T13:17:52.468Z,56.42
2018-12-25T13:20:21.779Z,54.83
2018-12-25T13:22:54.185Z,53.24
2018-12-25T13:25:40.300Z,56.60
2018-12-25T13:28:09.636Z,54.49
2018-12-25T13:30:38.767Z,53.18
2018-12-25T13:33:07.379Z,61.69
2018-12-25T13:35:36.693Z,54.35
2018-12-25T13:38:05.316Z,57.65
2018-12-25T13:40:34.653Z,52.68
2018-12-25T13:43:03.981Z,57.63
2018-12-25T13:45:33.313Z,54.93
2018-12-25T13:48:02.651Z,54.15
2018-12-25T13:50:31.985Z,54.19
2018-12-25T13:53:02.932Z,52.43
2018-12-25T13:55:50.511Z,53.39
2018-12-25T13:58:19.056Z,54.23
2018-12-25T14:00:48.386Z,55.71
2018-12-25T14:03:16.964Z,54.40
2018-12-25T14:05:46.299Z,52.10
2018-12-25T14:08:15.616Z,54.29
2018-12-25T14:10:44.999Z,54.67
2018-12-25T14:13:14.327Z,54.11
2018-12-25T14:15:42.836Z,55.29
2018-12-25T14:18:12.180Z,53.30
2018-12-25T14:20:41.499Z,61.56
2018-12-25T14:23:11.366Z,52.22
2018-12-25T14:25:59.252Z,55.38
2018-12-25T14:28:28.582Z,54.32
2018-12-25T14:30:57.894Z,56.77
2018-12-25T14:33:27.244Z,55.51
2018-12-25T14:35:55.775Z,53.86
2018-12-25T14:38:25.126Z,58.07
2018-12-25T14:40:54.445Z,53.03
2018-12-25T14:43:22.970Z,54.94
2018-12-25T14:45:51.495Z,55.00
2018-12-25T14:48:19.935Z,58.30
2018-12-25T14:50:49.255Z,56.20
2018-12-25T14:53:19.861Z,56.49
2018-12-25T14:56:07.807Z,60.69
2018-12-25T14:58:37.132Z,61.91
2018-12-25T15:01:06.462Z,56.60
2018-12-25T15:03:35.780Z,57.73
2018-12-25T15:06:04.210Z,57.15
2018-12-25T15:08:32.730Z,61.93
2018-12-25T15:11:02.067Z,59.62
2018-12-25T15:13:31.403Z,56.37
2018-12-25T15:16:00.728Z,63.67
2018-12-25T15:18:30.319Z,57.13
2018-12-25T15:20:59.636Z,58.76
2018-12-25T15:23:28.952Z,58.03
2018-12-25T15:25:58.286Z,58.93
2018-12-25T15:28:26.809Z,57.82
2018-12-25T15:30:55.345Z,61.52
2018-12-25T15:33:24.680Z,57.59
2018-12-25T15:35:53.199Z,59.15
2018-12-25T15:38:22.546Z,56.88
2018-12-25T15:40:51.854Z,57.87
2018-12-25T15:43:21.185Z,58.32
2018-12-25T15:45:50.513Z,60.31
2018-12-25T15:48:19.839Z,58.78
2018-12-25T15:50:48.450Z,58.61
2018-12-25T15:53:17.898Z,56.40
2018-12-25T15:55:46.533Z,64.77
2018-12-25T15:58:18.684Z,58.91
2018-12-25T16:00:48.051Z,59.27
2018-12-25T16:03:17.382Z,59.32
2018-12-25T16:05:45.886Z,58.64
2018-12-25T16:08:15.192Z,61.21
2018-12-25T16:10:44.544Z,66.02
2018-12-25T16:13:13.902Z,58.26
2018-12-25T16:15:42.334Z,58.13
2018-12-25T16:18:11.651Z,58.89
2018-12-25T16:20:40.978Z,58.42
2018-12-25T16:23:10.297Z,60.04
2018-12-25T16:25:38.828Z,60.20
2018-12-25T16:28:07.734Z,59.35
2018-12-25T16:30:36.168Z,62.14
2018-12-25T16:33:05.493Z,65.48
2018-12-25T16:35:34.821Z,59.55
2018-12-25T16:38:04.139Z,59.73
2018-12-25T16:40:33.462Z,60.65
2018-12-25T16:43:02.783Z,61.26
2018-12-25T16:45:32.102Z,61.02
2018-12-25T16:48:00.629Z,65.75
2018-12-25T16:50:29.150Z,60.90
2018-12-25T16:52:58.467Z,59.47
2018-12-25T16:55:27.800Z,61.41
2018-12-25T16:58:09.424Z,61.35
2018-12-25T17:00:37.976Z,61.90
2018-12-25T17:03:07.289Z,62.79
2018-12-25T17:05:36.639Z,64.66
2018-12-25T17:08:05.972Z,62.16
2018-12-25T17:10:35.295Z,70.08
2018-12-25T17:13:04.662Z,64.21
2018-12-25T17:15:33.081Z,63.27
2018-12-25T17:18:01.703Z,67.77
2018-12-25T17:20:30.235Z,62.31
2018-12-25T17:22:59.571Z,64.23
2018-12-25T17:25:28.992Z,63.12
2018-12-25T17:27:58.316Z,63.61
2018-12-25T17:30:27.725Z,64.39
2018-12-25T17:32:57.061Z,63.12
2018-12-25T17:35:26.380Z,63.91
2018-12-25T17:37:54.996Z,62.87
2018-12-25T17:40:23.523Z,63.12
2018-12-25T17:42:52.987Z,64.16
2018-12-25T17:45:22.291Z,63.80
2018-12-25T17:47:51.627Z,62.02
2018-12-25T17:50:20.937Z,63.75
2018-12-25T17:52:50.269Z,63.59
2018-12-25T17:55:18.677Z,68.95
2018-12-25T17:57:47.207Z,65.12
2018-12-25T18:00:16.509Z,65.90
2018-12-25T18:02:45.843Z,65.74
2018-12-25T18:05:15.167Z,65.94
2018-12-25T18:07:43.696Z,66.42
2018-12-25T18:10:13.031Z,66.03
2018-12-25T18:12:42.357Z,68.88
2018-12-25T18:15:11.671Z,66.98
2018-12-25T18:17:41.048Z,66.15
2018-12-25T18:20:10.369Z,65.94
2018-12-25T18:22:39.688Z,66.78
2018-12-25T18:25:09.025Z,66.52
2018-12-25T18:27:37.572Z,66.62
2018-12-25T18:30:06.461Z,67.35
2018-12-25T18:32:35.777Z,67.17
2018-12-25T18:35:05.203Z,68.98
2018-12-25T18:37:34.615Z,66.58
2018-12-25T18:40:04.553Z,67.45
2018-12-25T18:42:33.092Z,69.72
2018-12-25T18:45:03.973Z,68.55
2018-12-25T18:47:51.739Z,67.09
2018-12-25T18:50:21.061Z,67.25
2018-12-25T18:52:49.481Z,64.98
2018-12-25T18:55:17.899Z,64.15
2018-12-25T18:57:47.221Z,65.03
2018-12-25T19:00:16.564Z,64.01
2018-12-25T19:02:45.888Z,64.11
2018-12-25T19:05:15.205Z,64.22
2018-12-25T19:07:44.548Z,64.46
2018-12-25T19:10:13.867Z,65.19
2018-12-25T19:12:43.186Z,65.48
2018-12-25T19:15:32.458Z,66.25
2018-12-25T19:18:01.649Z,65.65
2018-12-25T19:20:30.774Z,68.44
2018-12-25T19:22:59.304Z,65.58
2018-12-25T19:25:28.631Z,65.68
2018-12-25T19:27:57.938Z,66.37
2018-12-25T19:30:29.315Z,66.50
2018-12-25T19:32:57.730Z,67.57
2018-12-25T19:35:27.059Z,68.76
2018-12-25T19:37:56.192Z,67.02
2018-12-25T19:40:25.532Z,67.52
2018-12-25T19:42:54.841Z,68.37
2018-12-25T19:45:24.258Z,68.69
2018-12-25T19:47:52.774Z,68.79
2018-12-25T19:50:21.187Z,68.68
2018-12-25T19:52:50.620Z,69.54
2018-12-25T19:55:19.954Z,69.50
2018-12-25T19:57:49.280Z,71.66
2018-12-25T20:00:18.602Z,69.58
2018-12-25T20:03:10.870Z,69.51
2018-12-25T20:06:18.983Z,70.25
2018-12-25T20:09:26.286Z,70.44
2018-12-25T20:12:33.530Z,69.98
2018-12-25T20:15:40.925Z,70.74
2018-12-25T20:18:48.452Z,71.17
2018-12-25T20:21:55.679Z,70.24
2018-12-25T20:24:52.830Z,71.84
2018-12-25T20:27:58.944Z,73.13
2018-12-25T20:31:06.206Z,74.28
2018-12-25T20:34:09.015Z,71.97
2018-12-25T20:37:08.470Z,72.40
2018-12-25T20:40:16.523Z,71.72
2018-12-25T20:43:23.871Z,71.54
2018-12-25T20:49:45.600Z,72.52
2018-12-25T20:52:52.847Z,73.13
2018-12-25T20:55:59.992Z,73.63
2018-12-25T20:59:07.261Z,77.06
2018-12-25T21:02:14.503Z,74.37
2018-12-25T21:05:14.221Z,75.63
2018-12-25T21:08:21.470Z,75.11
2018-12-25T21:11:31.806Z,75.53
2018-12-25T21:14:39.847Z,75.45
2018-12-25T21:17:47.494Z,74.91
2018-12-25T21:20:54.726Z,74.05
2018-12-25T21:24:01.971Z,75.58
2018-12-25T21:27:09.227Z,74.45
2018-12-25T21:29:37.749Z,74.29
2018-12-25T21:32:07.178Z,74.94
2018-12-25T21:34:36.611Z,75.19
2018-12-25T21:40:11.442Z,76.96
2018-12-25T21:45:43.736Z,76.42
2018-12-25T21:48:12.362Z,75.35
2018-12-25T21:50:41.693Z,75.87
2018-12-25T21:53:11.307Z,76.14
2018-12-25T21:55:39.918Z,76.05
2018-12-25T21:58:09.569Z,74.88
2018-12-25T22:00:38.377Z,75.44
2018-12-25T22:03:07.807Z,76.57
2018-12-25T22:05:37.123Z,78.00
2018-12-25T22:08:06.451Z,76.62
2018-12-25T22:10:35.761Z,76.02
2018-12-25T22:13:04.286Z,76.17
2018-12-25T22:15:32.789Z,76.47
2018-12-25T22:18:02.117Z,77.05
2018-12-25T22:20:34.056Z,76.11
2018-12-25T22:23:02.986Z,76.86
2018-12-25T22:25:31.636Z,77.47
2018-12-25T22:28:00.928Z,76.23
2018-12-25T22:30:30.275Z,76.88
2018-12-25T22:32:59.589Z,77.26
2018-12-25T22:35:28.912Z,77.19
2018-12-25T22:37:57.435Z,77.33
2018-12-25T22:40:26.766Z,77.76
2018-12-25T22:42:55.183Z,77.68
2018-12-25T22:45:23.692Z,77.76
2018-12-25T22:47:53.008Z,77.32
2018-12-25T22:50:22.342Z,79.49
2018-12-25T22:52:51.689Z,77.70
2018-12-25T22:55:21.019Z,78.02
2018-12-25T22:57:50.328Z,78.13
2018-12-25T23:03:15.514Z,78.31
2018-12-25T23:05:44.842Z,77.95
2018-12-25T23:08:14.159Z,78.69
2018-12-25T23:10:43.482Z,76.70
2018-12-25T23:13:12.813Z,77.35
2018-12-25T23:15:42.147Z,76.98
2018-12-25T23:18:11.486Z,77.83
2018-12-25T23:20:40.802Z,75.46
2018-12-25T23:23:10.119Z,75.33
2018-12-25T23:25:44.535Z,75.14
2018-12-25T23:28:28.668Z,78.35
2018-12-25T23:30:57.286Z,75.57
2018-12-25T23:33:25.843Z,77.64
2018-12-25T23:35:55.216Z,73.72
2018-12-25T23:38:24.597Z,75.21
2018-12-25T23:40:53.949Z,73.27
2018-12-25T23:43:23.266Z,73.50
2018-12-25T23:45:52.592Z,73.63
2018-12-25T23:48:21.094Z,72.87
2018-12-25T23:50:49.626Z,74.07
2018-12-25T23:53:18.947Z,73.50
2018-12-25T23:55:52.888Z,72.73
2018-12-25T23:58:37.528Z,73.10
